createdAt,value
2023-02-05T00:01:08.885Z,100.00
2023-02-05T00:03:42.788Z,100.00
2023-02-05T00:06:10.891Z,100.00
2023-02-05T00:08:38.775Z,100.00
2023-02-05T00:11:10.003Z,100.00
2023-02-05T00:13:41.841Z,100.00
2023-02-05T00:16:17.119Z,100.00
2023-02-05T00:18:46.002Z,100.00
2023-02-05T00:21:14.853Z,100.00
2023-02-05T00:23:43.283Z,100.00
2023-02-05T00:26:13.510Z,100.00
2023-02-05T00:28:42.593Z,100.00
2023-02-05T00:31:13.799Z,100.00
2023-02-05T00:33:42.868Z,100.00
2023-02-05T00:36:12.947Z,100.00
2023-02-05T00:38:43.282Z,100.00
2023-02-05T00:41:12.193Z,100.00
2023-02-05T00:43:41.498Z,100.00
2023-02-05T00:46:10.816Z,100.00
2023-02-05T00:48:40.111Z,100.00
2023-02-05T00:51:10.708Z,100.00
2023-02-05T00:53:38.761Z,100.00
2023-02-05T00:56:07.061Z,100.00
2023-02-05T00:58:36.951Z,100.00
2023-02-05T01:01:06.152Z,100.00
2023-02-05T01:03:34.580Z,100.00
2023-02-05T01:06:03.511Z,100.00
2023-02-05T01:08:32.101Z,100.00
2023-02-05T01:11:01.361Z,100.00
2023-02-05T01:13:29.402Z,100.00
2023-02-05T01:15:57.486Z,100.00
2023-02-05T01:18:25.549Z,100.00
2023-02-05T01:20:53.632Z,100.00
2023-02-05T01:23:21.874Z,100.00
2023-02-05T01:25:49.890Z,100.00
2023-02-05T01:28:19.143Z,100.00
2023-02-05T01:30:49.518Z,100.00
2023-02-05T01:33:19.400Z,100.00
2023-02-05T01:35:47.395Z,100.00
2023-02-05T01:38:15.971Z,100.00
2023-02-05T01:40:44.183Z,100.00
2023-02-05T01:43:18.087Z,100.00
2023-02-05T01:45:51.072Z,100.00
2023-02-05T01:48:25.106Z,100.00
2023-02-05T01:50:57.388Z,100.00
2023-02-05T01:53:30.073Z,100.00
2023-02-05T01:56:01.564Z,100.00
2023-02-05T01:58:40.844Z,100.00
2023-02-05T02:01:08.866Z,100.00
2023-02-05T02:03:38.640Z,100.00
2023-02-05T02:06:06.885Z,100.00
2023-02-05T02:08:34.975Z,100.00
2023-02-05T02:11:06.609Z,100.00
2023-02-05T02:13:36.972Z,100.00
2023-02-05T02:16:07.955Z,100.00
2023-02-05T02:18:38.204Z,100.00
2023-02-05T02:21:28.827Z,100.00
2023-02-05T02:24:17.198Z,100.00
2023-02-05T02:27:12.781Z,100.00
2023-02-05T02:29:58.830Z,100.00
2023-02-05T02:32:41.319Z,100.00
2023-02-05T02:35:36.780Z,100.00
2023-02-05T02:38:17.141Z,100.00
2023-02-05T02:40:52.248Z,100.00
2023-02-05T02:43:34.583Z,100.00
2023-02-05T02:46:08.317Z,100.00
2023-02-05T02:48:39.939Z,100.00
2023-02-05T02:51:10.227Z,100.00
2023-02-05T02:53:45.262Z,100.00
2023-02-05T02:56:16.509Z,100.00
2023-02-05T02:58:53.214Z,100.00
2023-02-05T03:01:25.744Z,100.00
2023-02-05T03:04:08.567Z,100.00
2023-02-05T03:06:40.119Z,100.00
2023-02-05T03:09:22.328Z,100.00
2023-02-05T03:11:50.362Z,100.00
2023-02-05T03:14:19.685Z,100.00
2023-02-05T03:16:47.930Z,100.00
2023-02-05T03:19:16.599Z,100.00
2023-02-05T03:21:50.535Z,100.00
2023-02-05T03:24:18.625Z,100.00
2023-02-05T03:26:46.639Z,100.00
2023-02-05T03:29:27.392Z,100.00
2023-02-05T03:32:19.434Z,100.00
2023-02-05T03:34:53.776Z,100.00
2023-02-05T03:37:31.419Z,100.00
2023-02-05T03:40:05.133Z,100.00
2023-02-05T03:42:42.918Z,100.00
2023-02-05T03:45:17.933Z,100.00
2023-02-05T03:48:15.956Z,100.00
2023-02-05T03:50:47.891Z,100.00
2023-02-05T03:53:30.945Z,100.00
2023-02-05T03:56:35.547Z,100.00
2023-02-05T03:59:05.821Z,100.00
2023-02-05T04:05:22.925Z,100.00
2023-02-05T04:07:52.469Z,100.00
2023-02-05T04:10:22.378Z,100.00
2023-02-05T04:12:51.516Z,100.00
2023-02-05T04:15:20.321Z,100.00
2023-02-05T04:17:51.585Z,100.00
2023-02-05T04:20:19.941Z,100.00
2023-02-05T04:22:48.303Z,100.00
2023-02-05T04:25:17.165Z,100.00
2023-02-05T04:27:46.407Z,100.00
2023-02-05T04:34:37.904Z,100.00
2023-02-05T04:37:09.765Z,100.00
2023-02-05T04:39:38.045Z,100.00
2023-02-05T04:42:06.098Z,100.00
2023-02-05T04:44:34.340Z,100.00
2023-02-05T04:47:02.357Z,100.00
2023-02-05T04:49:32.586Z,100.00
2023-02-05T04:52:01.161Z,100.00
2023-02-05T04:54:30.019Z,100.00
2023-02-05T04:56:58.120Z,100.00
2023-02-05T04:59:26.475Z,100.00
2023-02-05T05:01:54.510Z,100.00
2023-02-05T05:04:23.151Z,100.00
2023-02-05T05:06:51.131Z,100.00
2023-02-05T05:09:21.077Z,100.00
2023-02-05T05:11:49.189Z,100.00
2023-02-05T05:14:17.133Z,100.00
2023-02-05T05:16:46.803Z,100.00
2023-02-05T05:19:14.818Z,100.00
2023-02-05T05:21:42.944Z,100.00
2023-02-05T05:24:11.189Z,100.00
2023-02-05T05:26:43.875Z,100.00
2023-02-05T05:29:12.754Z,100.00
2023-02-05T05:31:41.737Z,100.00
2023-02-05T05:34:09.918Z,100.00
2023-02-05T05:36:40.237Z,100.00
2023-02-05T05:39:26.961Z,100.00
2023-02-05T05:42:13.451Z,100.00
2023-02-05T05:44:42.474Z,100.00
2023-02-05T05:47:10.459Z,100.00
2023-02-05T05:49:38.449Z,100.00
2023-02-05T05:52:06.390Z,100.00
2023-02-05T05:54:34.383Z,100.00
2023-02-05T05:57:02.490Z,100.00
2023-02-05T05:59:31.230Z,100.00
2023-02-05T06:02:04.285Z,100.00
2023-02-05T06:04:32.419Z,100.00
2023-02-05T06:07:02.376Z,100.00
2023-02-05T06:09:30.618Z,100.00
2023-02-05T06:11:58.752Z,100.00
2023-02-05T06:14:26.883Z,100.00
2023-02-05T06:16:55.991Z,100.00
2023-02-05T06:19:24.241Z,100.00
2023-02-05T06:21:52.526Z,100.00
2023-02-05T06:24:21.467Z,100.00
2023-02-05T06:26:49.559Z,100.00
2023-02-05T06:29:19.110Z,100.00
2023-02-05T06:31:47.541Z,100.00
2023-02-05T06:34:15.581Z,100.00
2023-02-05T06:36:43.724Z,100.00
2023-02-05T06:39:11.802Z,100.00
2023-02-05T06:41:40.082Z,100.00
2023-02-05T06:44:08.240Z,100.00
2023-02-05T06:46:36.472Z,100.00
2023-02-05T06:49:04.601Z,100.00
2023-02-05T06:51:32.948Z,100.00
2023-02-05T06:54:01.457Z,100.00
2023-02-05T06:56:29.596Z,100.00
2023-02-05T06:58:57.601Z,100.00
2023-02-05T07:01:25.813Z,100.00
2023-02-05T07:03:56.242Z,100.00
2023-02-05T07:06:25.298Z,100.00
2023-02-05T07:08:53.792Z,100.00
2023-02-05T07:11:23.648Z,100.00
2023-02-05T07:13:52.605Z,100.00
2023-02-05T07:16:20.944Z,100.00
2023-02-05T07:18:48.914Z,100.00
2023-02-05T07:21:17.527Z,100.00
2023-02-05T07:23:46.225Z,100.00
2023-02-05T07:26:16.532Z,100.00
2023-02-05T07:28:45.612Z,100.00
2023-02-05T07:31:16.494Z,100.00
2023-02-05T07:33:46.723Z,100.00
2023-02-05T07:36:17.762Z,100.00
2023-02-05T07:38:47.906Z,100.00
2023-02-05T07:41:17.718Z,100.00
2023-02-05T07:43:46.253Z,100.00
2023-02-05T07:46:15.313Z,100.00
2023-02-05T07:48:43.479Z,100.00
2023-02-05T07:51:30.113Z,100.00
2023-02-05T07:53:58.291Z,100.00
2023-02-05T07:56:26.462Z,100.00
2023-02-05T07:58:54.835Z,100.00
2023-02-05T08:01:22.885Z,100.00
2023-02-05T08:03:50.986Z,100.00
2023-02-05T08:06:19.007Z,100.00
2023-02-05T08:08:47.044Z,100.00
2023-02-05T08:11:16.498Z,100.00
2023-02-05T08:13:45.836Z,100.00
2023-02-05T08:16:15.945Z,100.00
2023-02-05T08:18:49.245Z,100.00
2023-02-05T08:21:19.780Z,100.00
2023-02-05T08:23:49.301Z,100.00
2023-02-05T08:26:18.743Z,100.00
2023-02-05T08:28:46.853Z,100.00
2023-02-05T08:31:18.904Z,100.00
2023-02-05T08:33:47.968Z,100.00
2023-02-05T08:36:15.985Z,100.00
2023-02-05T08:38:44.100Z,100.00
2023-02-05T08:41:12.895Z,100.00
2023-02-05T08:43:49.689Z,100.00
2023-02-05T08:46:21.075Z,100.00
2023-02-05T08:48:49.586Z,100.00
2023-02-05T08:51:19.752Z,99.95
2023-02-05T08:53:47.967Z,100.00
2023-02-05T08:56:19.233Z,100.00
2023-02-05T08:58:48.652Z,100.00
2023-02-05T09:01:17.617Z,100.00
2023-02-05T09:03:46.396Z,100.00
2023-02-05T09:06:15.931Z,100.00
2023-02-05T09:08:44.082Z,100.00
2023-02-05T09:11:13.547Z,100.00
2023-02-05T09:13:41.799Z,100.00
2023-02-05T09:16:12.850Z,100.00
2023-02-05T09:18:41.209Z,100.00
2023-02-05T09:21:11.024Z,100.00
2023-02-05T09:23:39.372Z,100.00
2023-02-05T09:26:09.420Z,100.00
2023-02-05T09:28:38.694Z,100.00
2023-02-05T09:31:09.225Z,100.00
2023-02-05T09:33:37.897Z,100.00
2023-02-05T09:36:13.032Z,100.00
2023-02-05T09:38:42.036Z,100.00
2023-02-05T09:41:13.279Z,100.00
2023-02-05T09:44:17.203Z,100.00
2023-02-05T09:46:56.546Z,100.00
2023-02-05T09:49:38.747Z,99.49
2023-02-05T09:52:27.312Z,99.70
2023-02-05T09:55:01.447Z,99.96
2023-02-05T09:57:34.341Z,100.00
2023-02-05T10:00:05.654Z,99.32
2023-02-05T10:02:51.010Z,99.69
2023-02-05T10:05:24.972Z,100.00
2023-02-05T10:08:22.913Z,100.00
2023-02-05T10:10:54.321Z,100.00
2023-02-05T10:13:31.444Z,97.13
2023-02-05T10:16:29.838Z,92.42
2023-02-05T10:19:16.656Z,90.15
2023-02-05T10:21:47.865Z,94.69
2023-02-05T10:24:41.364Z,91.53
2023-02-05T10:27:19.160Z,91.02
2023-02-05T10:30:07.117Z,93.14
2023-02-05T10:32:57.642Z,92.05
2023-02-05T10:35:44.438Z,87.66
2023-02-05T10:38:39.427Z,90.61
2023-02-05T10:41:12.335Z,92.87
2023-02-05T10:44:00.292Z,92.09
2023-02-05T10:46:35.720Z,92.18
2023-02-05T10:49:12.507Z,92.54
2023-02-05T10:51:43.769Z,90.84
2023-02-05T10:54:26.429Z,90.30
2023-02-05T10:56:58.955Z,90.93
2023-02-05T10:59:36.570Z,91.85
2023-02-05T11:04:46.008Z,92.26
2023-02-05T11:07:33.042Z,92.07
2023-02-05T11:10:15.594Z,92.82
2023-02-05T11:12:46.823Z,91.90
2023-02-05T11:15:33.705Z,91.67
2023-02-05T11:18:05.527Z,91.58
2023-02-05T11:20:35.758Z,91.69
2023-02-05T11:23:06.647Z,91.69
2023-02-05T11:25:35.563Z,90.86
2023-02-05T11:28:05.792Z,90.67
2023-02-05T11:30:54.304Z,91.37
2023-02-05T11:33:22.824Z,90.77
2023-02-05T11:35:57.028Z,90.39
2023-02-05T11:38:33.538Z,89.18
2023-02-05T11:41:06.864Z,90.24
2023-02-05T11:43:38.334Z,90.25
2023-02-05T11:46:16.493Z,90.06
2023-02-05T11:48:56.775Z,90.39
2023-02-05T11:51:29.770Z,90.08
2023-02-05T11:54:01.362Z,90.76
2023-02-05T11:56:29.621Z,91.11
2023-02-05T11:59:19.403Z,89.30
2023-02-05T12:01:48.410Z,89.90
2023-02-05T12:04:20.523Z,90.84
2023-02-05T12:07:15.483Z,88.64
2023-02-05T12:09:43.730Z,90.81
2023-02-05T12:12:28.878Z,90.08
2023-02-05T12:15:15.625Z,89.37
2023-02-05T12:18:01.855Z,91.43
2023-02-05T12:20:42.883Z,91.10
2023-02-05T12:23:48.196Z,90.78
2023-02-05T12:26:40.636Z,89.84
2023-02-05T12:29:44.163Z,90.69
2023-02-05T12:32:27.680Z,89.73
2023-02-05T12:34:58.919Z,85.64
2023-02-05T12:37:52.183Z,89.02
2023-02-05T12:40:30.046Z,89.70
2023-02-05T12:43:02.862Z,87.68
2023-02-05T12:45:39.273Z,87.65
2023-02-05T12:48:39.063Z,86.58
2023-02-05T12:51:19.827Z,87.11
2023-02-05T12:54:13.142Z,86.48
2023-02-05T12:56:55.241Z,85.74
2023-02-05T13:00:03.509Z,84.40
2023-02-05T13:02:49.893Z,86.81
2023-02-05T13:05:56.492Z,84.96
2023-02-05T13:08:45.575Z,83.29
2023-02-05T13:11:25.441Z,86.27
2023-02-05T13:14:11.913Z,87.10
2023-02-05T13:16:54.156Z,87.18
2023-02-05T13:19:41.135Z,86.85
2023-02-05T13:22:39.418Z,86.80
2023-02-05T13:25:38.942Z,86.92
2023-02-05T13:28:41.088Z,86.51
2023-02-05T13:31:25.116Z,86.83
2023-02-05T13:33:56.717Z,87.00
2023-02-05T13:36:24.806Z,87.09
2023-02-05T13:39:11.563Z,87.07
2023-02-05T13:42:01.124Z,85.64
2023-02-05T13:45:01.461Z,85.48
2023-02-05T13:47:47.627Z,86.49
2023-02-05T13:50:28.188Z,86.02
2023-02-05T13:53:14.453Z,86.05
2023-02-05T13:56:14.378Z,85.59
2023-02-05T13:58:49.605Z,86.35
2023-02-05T14:01:18.244Z,85.71
2023-02-05T14:03:59.536Z,86.10
2023-02-05T14:06:41.159Z,86.17
2023-02-05T14:09:24.752Z,86.05
2023-02-05T14:11:59.291Z,85.67
2023-02-05T14:14:34.926Z,86.05
2023-02-05T14:17:28.861Z,85.88
2023-02-05T14:19:58.960Z,85.88
2023-02-05T14:22:42.480Z,85.67
2023-02-05T14:25:38.132Z,85.84
2023-02-05T14:28:09.013Z,85.66
2023-02-05T14:30:51.947Z,85.53
2023-02-05T14:33:26.269Z,85.67
2023-02-05T14:36:10.860Z,85.75
2023-02-05T14:38:42.194Z,85.90
2023-02-05T14:41:14.648Z,86.12
2023-02-05T14:43:46.737Z,85.83
2023-02-05T14:46:25.535Z,85.52
2023-02-05T14:48:58.240Z,85.96
2023-02-05T14:51:31.479Z,86.15
2023-02-05T14:54:05.336Z,86.04
2023-02-05T14:56:46.791Z,85.86
2023-02-05T14:59:20.940Z,86.00
2023-02-05T15:01:54.267Z,85.98
2023-02-05T15:04:49.630Z,85.91
2023-02-05T15:07:27.721Z,86.29
2023-02-05T15:10:18.437Z,86.11
2023-02-05T15:12:49.674Z,86.30
2023-02-05T15:15:28.006Z,86.16
2023-02-05T15:18:02.615Z,86.45
2023-02-05T15:20:36.060Z,86.22
2023-02-05T15:23:06.477Z,86.26
2023-02-05T15:25:42.666Z,86.48
2023-02-05T15:28:29.613Z,86.25
2023-02-05T15:31:17.473Z,86.42
2023-02-05T15:33:58.770Z,86.58
2023-02-05T15:36:46.279Z,86.51
2023-02-05T15:39:30.440Z,86.59
2023-02-05T15:42:01.554Z,86.42
2023-02-05T15:44:31.979Z,86.77
2023-02-05T15:47:04.722Z,86.83
2023-02-05T15:49:46.076Z,86.71
2023-02-05T15:52:23.336Z,86.82
2023-02-05T15:54:55.562Z,87.12
2023-02-05T15:57:29.756Z,87.19
2023-02-05T16:00:00.853Z,87.31
2023-02-05T16:02:57.530Z,86.99
2023-02-05T16:05:27.500Z,87.17
2023-02-05T16:07:57.563Z,87.27
2023-02-05T16:10:28.995Z,87.25
2023-02-05T16:13:14.341Z,87.66
2023-02-05T16:15:45.472Z,87.44
2023-02-05T16:18:20.516Z,87.41
2023-02-05T16:20:57.632Z,87.65
2023-02-05T16:23:31.909Z,87.63
2023-02-05T16:26:15.896Z,87.62
2023-02-05T16:28:58.811Z,87.52
2023-02-05T16:31:29.977Z,87.93
2023-02-05T16:34:05.710Z,87.81
2023-02-05T16:36:38.897Z,87.99
2023-02-05T16:39:30.125Z,87.96
2023-02-05T16:42:17.542Z,88.14
2023-02-05T16:44:48.710Z,87.82
2023-02-05T16:47:20.205Z,88.05
2023-02-05T16:49:49.728Z,88.12
2023-02-05T16:52:36.460Z,88.32
2023-02-05T16:55:07.652Z,88.10
2023-02-05T16:57:38.942Z,88.20
2023-02-05T17:00:23.952Z,88.44
2023-02-05T17:02:59.107Z,88.58
2023-02-05T17:05:29.366Z,88.87
2023-02-05T17:08:09.150Z,88.71
2023-02-05T17:10:52.912Z,88.68
2023-02-05T17:13:42.516Z,88.94
2023-02-05T17:16:30.941Z,88.88
2023-02-05T17:19:00.957Z,88.77
2023-02-05T17:21:34.515Z,89.03
2023-02-05T17:24:06.380Z,88.98
2023-02-05T17:26:39.535Z,88.98
2023-02-05T17:29:13.928Z,89.06
2023-02-05T17:31:42.305Z,89.29
2023-02-05T17:34:11.810Z,89.18
2023-02-05T17:36:39.832Z,89.21
2023-02-05T17:39:07.988Z,89.15
2023-02-05T17:41:55.977Z,89.43
2023-02-05T17:44:24.357Z,89.23
2023-02-05T17:46:54.395Z,89.39
2023-02-05T17:49:22.778Z,89.59
2023-02-05T17:51:50.949Z,89.64
2023-02-05T17:54:21.858Z,89.93
2023-02-05T17:56:51.051Z,89.91
2023-02-05T17:59:22.418Z,90.18
2023-02-05T18:01:51.871Z,90.15
2023-02-05T18:04:20.373Z,90.30
2023-02-05T18:06:49.996Z,90.36
2023-02-05T18:09:20.478Z,90.52
2023-02-05T18:11:48.773Z,90.87
2023-02-05T18:14:16.929Z,90.73
2023-02-05T18:16:45.614Z,90.82
2023-02-05T18:19:14.083Z,90.98
2023-02-05T18:21:42.506Z,91.11
2023-02-05T18:24:10.542Z,91.18
2023-02-05T18:26:38.626Z,91.42
2023-02-05T18:29:06.737Z,91.37
2023-02-05T18:31:35.376Z,91.51
2023-02-05T18:34:03.575Z,91.99
2023-02-05T18:36:31.652Z,91.97
2023-02-05T18:38:59.794Z,92.04
2023-02-05T18:41:28.943Z,92.45
2023-02-05T18:43:58.433Z,92.39
2023-02-05T18:46:26.626Z,92.77
2023-02-05T18:48:55.790Z,92.60
2023-02-05T18:51:24.182Z,92.37
2023-02-05T18:53:52.313Z,92.41
2023-02-05T18:56:26.671Z,92.61
2023-02-05T18:59:02.443Z,92.61
2023-02-05T19:04:42.396Z,92.91
2023-02-05T19:07:10.467Z,92.81
2023-02-05T19:09:38.468Z,92.71
2023-02-05T19:12:07.011Z,92.67
2023-02-05T19:14:35.091Z,92.87
2023-02-05T19:17:03.291Z,92.62
2023-02-05T19:19:32.040Z,92.69
2023-02-05T19:22:02.127Z,92.81
2023-02-05T19:24:30.436Z,92.93
2023-02-05T19:27:02.097Z,93.01
2023-02-05T19:29:30.717Z,93.19
2023-02-05T19:31:59.070Z,93.08
2023-02-05T19:34:27.963Z,93.04
2023-02-05T19:36:56.138Z,92.97
2023-02-05T19:39:25.302Z,93.14
2023-02-05T19:41:53.486Z,93.16
2023-02-05T19:44:21.544Z,93.01
2023-02-05T19:46:50.510Z,93.12
2023-02-05T19:49:21.057Z,93.06
2023-02-05T19:51:55.296Z,93.19
2023-02-05T19:54:23.709Z,93.18
2023-02-05T19:56:51.973Z,92.78
2023-02-05T19:59:21.440Z,92.89
2023-02-05T20:01:50.058Z,93.26
2023-02-05T20:04:24.948Z,93.29
2023-02-05T20:06:58.878Z,93.04
2023-02-05T20:09:27.790Z,92.89
2023-02-05T20:11:56.865Z,92.69
2023-02-05T20:14:25.170Z,92.74
2023-02-05T20:16:54.154Z,92.79
2023-02-05T20:19:22.898Z,92.73
2023-02-05T20:21:51.189Z,92.64
2023-02-05T20:24:19.275Z,92.19
2023-02-05T20:26:50.284Z,92.29
2023-02-05T20:29:36.867Z,92.35
2023-02-05T20:32:05.585Z,92.46
2023-02-05T20:34:35.959Z,92.48
2023-02-05T20:37:07.438Z,92.65
2023-02-05T20:39:39.679Z,93.14
2023-02-05T20:42:10.700Z,93.27
2023-02-05T20:44:39.410Z,93.17
2023-02-05T20:47:10.690Z,93.19
2023-02-05T20:49:40.272Z,92.72
2023-02-05T20:52:11.902Z,92.77
2023-02-05T20:54:41.352Z,92.94
2023-02-05T20:57:09.602Z,93.31
2023-02-05T20:59:38.799Z,93.17
2023-02-05T21:02:07.365Z,93.02
2023-02-05T21:04:36.727Z,92.56
2023-02-05T21:07:04.954Z,92.45
2023-02-05T21:09:33.339Z,92.81
2023-02-05T21:12:01.501Z,92.82
2023-02-05T21:14:29.697Z,93.18
2023-02-05T21:16:57.677Z,93.26
2023-02-05T21:19:25.676Z,93.36
2023-02-05T21:21:53.907Z,93.75
2023-02-05T21:24:22.067Z,94.22
2023-02-05T21:26:50.358Z,94.27
2023-02-05T21:29:21.026Z,94.28
2023-02-05T21:31:55.910Z,94.71
2023-02-05T21:34:28.085Z,94.38
2023-02-05T21:36:56.651Z,94.39
2023-02-05T21:39:25.758Z,93.74
2023-02-05T21:41:54.536Z,93.62
2023-02-05T21:44:23.061Z,94.00
2023-02-05T21:46:53.354Z,93.74
2023-02-05T21:49:22.269Z,93.79
2023-02-05T21:51:53.573Z,94.05
2023-02-05T21:54:25.596Z,94.32
2023-02-05T21:56:54.551Z,94.36
2023-02-05T21:59:22.936Z,93.90
2023-02-05T22:01:52.080Z,93.73
2023-02-05T22:04:21.495Z,93.95
2023-02-05T22:06:50.220Z,94.00
2023-02-05T22:09:18.492Z,94.19
2023-02-05T22:11:52.606Z,94.07
2023-02-05T22:14:20.578Z,93.96
2023-02-05T22:16:48.715Z,93.83
2023-02-05T22:19:17.019Z,93.97
2023-02-05T22:21:45.409Z,94.19
2023-02-05T22:24:16.566Z,94.05
2023-02-05T22:26:45.796Z,94.38
2023-02-05T22:29:16.657Z,94.34
2023-02-05T22:31:46.623Z,94.20
2023-02-05T22:34:14.623Z,94.38
2023-02-05T22:36:42.852Z,94.67
2023-02-05T22:39:11.239Z,95.02
2023-02-05T22:41:42.684Z,94.94
2023-02-05T22:44:11.657Z,95.06
2023-02-05T22:46:44.583Z,95.27
2023-02-05T22:49:15.524Z,95.18
2023-02-05T22:51:45.290Z,95.38
2023-02-05T22:54:15.404Z,95.28
2023-02-05T22:56:44.508Z,94.97
2023-02-05T22:59:13.195Z,94.76
2023-02-05T23:01:41.378Z,94.94
2023-02-05T23:04:10.284Z,95.16
2023-02-05T23:06:41.079Z,95.28
2023-02-05T23:09:16.338Z,95.36
2023-02-05T23:11:44.832Z,95.49
2023-02-05T23:14:15.056Z,95.35
2023-02-05T23:16:45.744Z,95.18
2023-02-05T23:19:20.250Z,95.10
2023-02-05T23:21:48.980Z,94.85
2023-02-05T23:24:18.082Z,94.66
2023-02-05T23:26:48.659Z,95.10
2023-02-05T23:29:17.401Z,95.26
2023-02-05T23:31:45.759Z,95.42
2023-02-05T23:34:14.155Z,95.36
2023-02-05T23:36:42.237Z,95.21
2023-02-05T23:39:10.625Z,95.40
2023-02-05T23:41:40.288Z,95.68
2023-02-05T23:44:13.123Z,95.70
2023-02-05T23:46:43.186Z,95.79
2023-02-05T23:49:11.737Z,95.77
2023-02-05T23:51:40.407Z,95.85
2023-02-05T23:54:10.254Z,95.88
2023-02-05T23:56:38.315Z,95.80
2023-02-05T23:59:07.617Z,95.74
